Time;durP1;ratioP1;P1;durP2;ratioP2;P2;SDS_P1;SDS_P2;PMS_P1;PMS_P2;Temp;Humidity;BMP_temperature;BMP_pressure;BME280_temperature;BME280_humidity;BME280_pressure;Samples;Min_cycle;Max_cycle;Signal;HPM_P1;HPM_P2
2023/08/10 00:00:12;;;;;;;0.57;0.50;;;;;;;13.28;84.66;102004.97;5053466;28;20195;-84
2023/08/10 00:02:40;;;;;;;0.88;0.73;;;;;;;13.31;84.30;102004.09;5054087;28;20021;-84
2023/08/10 00:05:06;;;;;;;1.05;0.75;;;;;;;13.36;84.74;102004.88;5053560;28;20025;-84
2023/08/10 00:07:32;;;;;;;0.60;0.60;;;;;;;13.39;84.64;102012.69;5052691;28;20136;-84
2023/08/10 00:09:57;;;;;;;0.88;0.88;;;;;;;13.42;85.05;102015.31;5053707;28;20017;-84
2023/08/10 00:12:23;;;;;;;0.70;0.70;;;;;;;13.44;84.66;102017.03;5053334;28;20028;-84
2023/08/10 00:14:48;;;;;;;0.70;0.70;;;;;;;13.44;84.68;102006.59;5053092;28;20041;-84
2023/08/10 00:17:15;;;;;;;0.83;0.83;;;;;;;13.50;84.77;102023.94;5053584;28;20025;-85
2023/08/10 00:19:40;;;;;;;0.80;0.80;;;;;;;13.52;84.86;102026.53;5053283;28;20059;-84
2023/08/10 00:22:05;;;;;;;0.70;0.70;;;;;;;13.54;85.17;102027.38;5052555;28;20052;-84
2023/08/10 00:24:31;;;;;;;0.53;0.53;;;;;;;13.55;85.04;102018.69;5052599;28;20032;-84
2023/08/10 00:26:56;;;;;;;0.70;0.70;;;;;;;13.57;85.46;102023.00;5053424;28;20457;-84
2023/08/10 00:29:21;;;;;;;0.70;0.70;;;;;;;13.56;85.40;102012.59;5052604;28;20437;-84
2023/08/10 00:31:47;;;;;;;0.70;0.70;;;;;;;13.60;85.33;102019.50;5053668;28;20041;-84
2023/08/10 00:34:12;;;;;;;0.63;0.63;;;;;;;13.61;85.42;102023.84;5053391;28;20029;-84
2023/08/10 00:36:37;;;;;;;0.83;0.83;;;;;;;13.61;85.30;102026.47;5052517;28;20017;-84
2023/08/10 00:39:03;;;;;;;1.60;1.03;;;;;;;13.62;85.09;102024.72;5052738;28;20381;-84
2023/08/10 00:41:28;;;;;;;0.70;0.70;;;;;;;13.58;85.79;102016.91;5053062;28;20503;-84
2023/08/10 00:43:54;;;;;;;0.50;0.50;;;;;;;13.63;85.82;102019.47;5052266;28;20021;-84
2023/08/10 00:46:19;;;;;;;0.77;0.77;;;;;;;13.62;85.77;102022.97;5052777;28;20024;-84
2023/08/10 00:48:45;;;;;;;1.07;0.97;;;;;;;13.61;85.82;102005.59;5053018;28;20385;-84
2023/08/10 00:51:10;;;;;;;0.77;0.77;;;;;;;13.54;85.99;102001.28;5052298;28;20020;-84
2023/08/10 00:53:37;;;;;;;0.60;0.60;;;;;;;13.56;85.94;102010.84;5052805;28;20466;-84
2023/08/10 00:56:04;;;;;;;0.80;0.80;;;;;;;13.61;85.99;102010.81;5053023;28;20017;-85
2023/08/10 00:58:32;;;;;;;0.80;0.80;;;;;;;13.63;86.25;102006.41;5052026;28;20473;-84
2023/08/10 01:00:58;;;;;;;0.70;0.70;;;;;;;13.62;86.48;102012.53;5053118;28;20437;-85
2023/08/10 01:03:23;;;;;;;0.80;0.80;;;;;;;13.65;86.94;102012.50;5052684;28;20032;-84
2023/08/10 01:05:54;;;;;;;0.90;0.90;;;;;;;13.63;86.64;102009.03;5052029;28;20032;-84
2023/08/10 01:08:31;;;;;;;0.80;0.80;;;;;;;13.62;86.45;102003.84;5052281;28;20035;-84
2023/08/10 01:11:15;;;;;;;1.27;0.90;;;;;;;13.63;86.39;102016.84;5052273;28;20029;-84
2023/08/10 01:14:09;;;;;;;0.70;0.70;;;;;;;13.63;86.74;102019.47;5052458;28;20040;-84
2023/08/10 01:16:38;;;;;;;0.90;0.90;;;;;;;13.63;86.85;102019.47;5049049;28;20142;-84
2023/08/10 01:19:07;;;;;;;0.80;0.80;;;;;;;13.63;86.97;102021.22;5051145;28;20055;-84
2023/08/10 01:21:36;;;;;;;1.00;1.00;;;;;;;13.65;86.79;102029.91;5052796;28;20052;-84
2023/08/10 01:24:34;;;;;;;1.17;1.10;;;;;;;13.63;87.01;102022.06;5052292;28;20021;-84
2023/08/10 01:27:01;;;;;;;0.82;0.82;;;;;;;13.61;87.37;102018.63;5047250;28;20025;-84
2023/08/10 01:29:26;;;;;;;1.05;1.05;;;;;;;13.62;87.22;102022.97;5052174;28;20041;-84
2023/08/10 01:31:52;;;;;;;0.97;0.97;;;;;;;13.61;87.14;102025.59;5051645;28;20040;-84
2023/08/10 01:34:18;;;;;;;0.80;0.80;;;;;;;13.53;87.27;102012.59;5053213;28;20051;-84
2023/08/10 01:36:43;;;;;;;1.10;1.00;;;;;;;13.60;87.44;102027.34;5052981;28;20586;-84
2023/08/10 01:39:11;;;;;;;0.90;0.90;;;;;;;13.57;87.48;102024.75;5051992;28;20373;-84
2023/08/10 01:41:36;;;;;;;1.20;1.10;;;;;;;13.55;87.39;102027.38;5052479;28;20040;-84
2023/08/10 01:44:03;;;;;;;1.07;0.97;;;;;;;13.55;87.59;102022.16;5053065;28;20021;-84
2023/08/10 01:46:39;;;;;;;1.30;1.20;;;;;;;13.56;87.44;102028.22;5051952;28;20021;-84
2023/08/10 01:49:08;;;;;;;1.25;1.15;;;;;;;13.54;87.63;102033.47;5051987;28;20021;-84
2023/08/10 01:51:35;;;;;;;1.08;1.08;;;;;;;13.48;87.81;102012.66;5052984;28;20037;-84
2023/08/10 01:54:03;;;;;;;1.25;1.15;;;;;;;13.49;87.95;102022.19;5055723;28;20413;-84
2023/08/10 01:56:29;;;;;;;1.17;1.13;;;;;;;13.43;87.84;102017.06;5057028;28;20051;-84
2023/08/10 01:58:55;;;;;;;1.30;1.20;;;;;;;13.42;88.00;102024.00;5056521;28;20029;-84
2023/08/10 02:01:20;;;;;;;0.93;0.93;;;;;;;13.31;88.22;102004.94;5055144;28;20435;-84
2023/08/10 02:03:45;;;;;;;1.00;1.00;;;;;;;13.36;88.14;102023.16;5056372;28;20491;-84
2023/08/10 02:06:11;;;;;;;1.43;1.33;;;;;;;13.28;88.05;102025.84;5055771;28;20078;-85
2023/08/10 02:08:36;;;;;;;1.40;1.27;;;;;;;13.24;88.46;102018.91;5054661;28;20033;-84
2023/08/10 02:11:02;;;;;;;1.47;1.37;;;;;;;13.21;88.24;102029.34;5055723;28;20091;-85
2023/08/10 02:13:27;;;;;;;1.40;1.30;;;;;;;13.16;88.45;102023.31;5056254;28;20048;-85
2023/08/10 02:15:52;;;;;;;1.10;1.10;;;;;;;13.11;88.25;102024.22;5055280;28;20078;-84
2023/08/10 02:18:25;;;;;;;1.43;1.30;;;;;;;13.05;88.66;102024.25;5055675;28;20033;-85
2023/08/10 02:20:50;;;;;;;1.48;1.30;;;;;;;13.00;88.52;102027.78;5055341;28;20024;-84
2023/08/10 02:23:16;;;;;;;1.60;1.50;;;;;;;13.00;88.63;102030.38;5055213;28;20032;-85
2023/08/10 02:25:41;;;;;;;1.33;1.23;;;;;;;12.97;88.98;102031.25;5055435;28;20036;-85
2023/08/10 02:28:06;;;;;;;1.40;1.30;;;;;;;12.92;89.09;102027.81;5054980;28;20022;-84
2023/08/10 02:30:32;;;;;;;1.50;1.40;;;;;;;12.85;89.03;102026.09;5055462;28;20075;-84
2023/08/10 02:32:57;;;;;;;1.67;1.30;;;;;;;12.85;89.00;102034.81;5055943;28;20029;-84
2023/08/10 02:35:26;;;;;;;1.30;1.20;;;;;;;12.83;89.66;102033.94;5054795;28;20452;-84
2023/08/10 02:37:51;;;;;;;1.20;1.20;;;;;;;12.79;89.26;102032.22;5055693;28;20029;-84
2023/08/10 02:40:16;;;;;;;1.40;1.30;;;;;;;12.77;89.37;102040.03;5054917;28;20144;-84
2023/08/10 02:42:44;;;;;;;2.03;1.23;;;;;;;12.75;89.72;102030.50;5054586;28;20121;-84
2023/08/10 02:45:10;;;;;;;1.20;1.10;;;;;;;12.73;89.63;102038.31;5054830;28;20358;-84
2023/08/10 02:47:35;;;;;;;1.23;1.23;;;;;;;12.70;89.71;102045.28;5055443;28;20036;-85
2023/08/10 02:50:02;;;;;;;1.50;1.40;;;;;;;12.67;89.82;102040.97;5054358;28;20516;-85
2023/08/10 02:52:30;;;;;;;1.55;1.45;;;;;;;12.62;89.81;102041.00;5055240;28;20159;-84
2023/08/10 02:54:55;;;;;;;1.33;1.23;;;;;;;12.59;89.66;102040.16;5055302;28;20513;-84
2023/08/10 02:57:21;;;;;;;1.57;1.30;;;;;;;12.57;90.44;102040.13;5054026;28;20125;-84
2023/08/10 02:59:46;;;;;;;1.63;1.53;;;;;;;12.55;90.29;102041.03;5055071;28;20071;-84
2023/08/10 03:02:17;;;;;;;1.77;1.40;;;;;;;12.50;90.26;102043.66;5054878;28;20053;-85
2023/08/10 03:04:42;;;;;;;1.58;1.48;;;;;;;12.47;90.42;102041.03;5053162;28;20025;-85
2023/08/10 03:07:08;;;;;;;1.23;1.20;;;;;;;12.47;90.36;102051.47;5055071;28;20024;-85
2023/08/10 03:09:37;;;;;;;1.20;1.10;;;;;;;12.42;90.30;102050.63;5054761;28;20112;-84
2023/08/10 03:12:02;;;;;;;1.50;1.40;;;;;;;12.40;90.31;102053.22;5054178;28;20465;-84
2023/08/10 03:14:28;;;;;;;1.40;1.30;;;;;;;12.38;90.70;102055.00;5054881;28;20143;-84
2023/08/10 03:16:53;;;;;;;1.57;1.40;;;;;;;12.33;90.91;102046.31;5054801;28;20067;-85
2023/08/10 03:19:18;;;;;;;1.37;1.27;;;;;;;12.36;90.62;102056.72;5054073;28;20376;-85
2023/08/10 03:21:45;;;;;;;1.45;1.35;;;;;;;12.40;90.76;102058.44;5054813;28;20025;-84
2023/08/10 03:24:10;;;;;;;1.90;1.80;;;;;;;12.38;90.92;102057.59;5054256;28;20024;-85
2023/08/10 03:26:35;;;;;;;1.70;1.60;;;;;;;12.42;90.91;102059.28;5054992;28;20033;-85
2023/08/10 03:29:00;;;;;;;1.13;1.13;;;;;;;12.43;91.34;102061.03;5055107;28;20465;-85
2023/08/10 03:31:26;;;;;;;1.40;1.30;;;;;;;12.45;91.34;102050.59;5053067;28;20041;-85
2023/08/10 03:33:51;;;;;;;1.40;1.27;;;;;;;12.47;91.38;102052.34;5054558;28;20096;-85
2023/08/10 03:36:19;;;;;;;1.33;1.30;;;;;;;12.44;91.44;102048.91;5053965;28;20052;-85
2023/08/10 03:38:44;;;;;;;1.40;1.30;;;;;;;12.46;91.29;102049.72;5053150;28;20060;-86
2023/08/10 03:41:09;;;;;;;1.53;1.43;;;;;;;12.47;91.49;102054.94;5054060;28;20059;-86
2023/08/10 03:43:35;;;;;;;1.07;1.07;;;;;;;12.46;91.41;102052.31;5054675;28;20432;-86
2023/08/10 03:46:02;;;;;;;1.33;1.30;;;;;;;12.48;91.47;102055.81;5053753;28;20063;-85
2023/08/10 03:48:27;;;;;;;1.38;1.27;;;;;;;12.47;91.75;102057.56;5054319;28;20043;-84
2023/08/10 03:50:53;;;;;;;1.10;1.10;;;;;;;12.44;91.72;102052.34;5054178;28;20124;-84
2023/08/10 03:53:18;;;;;;;1.30;1.20;;;;;;;12.42;92.00;102051.47;5052816;28;20019;-84
2023/08/10 03:55:43;;;;;;;0.90;0.90;;;;;;;12.45;92.00;102053.19;5053813;28;20480;-84
2023/08/10 03:58:09;;;;;;;1.63;1.53;;;;;;;12.40;92.06;102040.19;5053731;28;20021;-83
2023/08/10 04:00:34;;;;;;;1.33;1.23;;;;;;;12.41;92.18;102048.91;5052575;28;20029;-84
2023/08/10 04:03:00;;;;;;;1.30;1.20;;;;;;;12.41;92.19;102056.72;5053729;28;20028;-84
2023/08/10 04:05:27;;;;;;;3.03;1.53;;;;;;;12.40;92.01;102060.19;5053213;28;20025;-84
2023/08/10 04:07:52;;;;;;;1.23;1.13;;;;;;;12.36;92.12;102054.13;5053035;28;20468;-84
2023/08/10 04:10:17;;;;;;;1.40;1.30;;;;;;;12.25;92.23;102040.28;5053821;28;20029;-84
2023/08/10 04:12:43;;;;;;;1.37;1.20;;;;;;;12.30;92.56;102051.53;5053499;28;20415;-84
2023/08/10 04:15:08;;;;;;;1.60;1.50;;;;;;;12.30;92.39;102054.13;5052398;28;20057;-84
2023/08/10 04:17:34;;;;;;;1.33;1.23;;;;;;;12.28;92.30;102061.06;5053594;28;20107;-86
2023/08/10 04:20:00;;;;;;;1.98;1.40;;;;;;;12.26;92.49;102057.63;5053377;28;20028;-86
2023/08/10 04:22:25;;;;;;;1.30;1.20;;;;;;;12.23;92.44;102057.63;5052866;28;20025;-85
2023/08/10 04:24:51;;;;;;;1.60;1.50;;;;;;;12.20;92.79;102063.72;5054160;28;20493;-88
2023/08/10 04:27:20;;;;;;;1.50;1.40;;;;;;;12.21;92.70;102065.44;5061448;28;20071;-88
2023/08/10 04:29:46;;;;;;;1.52;1.42;;;;;;;12.16;92.68;102057.63;5053498;28;20469;-86
2023/08/10 04:32:12;;;;;;;1.15;1.15;;;;;;;12.20;92.65;102071.53;5053423;28;20055;-86
2023/08/10 04:34:38;;;;;;;1.40;1.30;;;;;;;12.19;93.13;102068.03;5052535;28;20032;-87
2023/08/10 04:37:03;;;;;;;1.53;1.43;;;;;;;12.14;92.96;102062.00;5052513;28;20029;-86
2023/08/10 04:39:29;;;;;;;1.80;1.70;;;;;;;12.17;92.85;102077.56;5053543;28;20466;-86
2023/08/10 04:41:54;;;;;;;1.27;1.17;;;;;;;12.18;92.95;102068.91;5052524;28;20032;-86
2023/08/10 04:44:20;;;;;;;2.07;1.37;;;;;;;12.16;93.14;102072.38;5052611;28;20025;-86
2023/08/10 04:46:45;;;;;;;1.53;1.40;;;;;;;12.15;93.34;102071.53;5053339;28;20029;-88
2023/08/10 04:49:10;;;;;;;1.50;1.40;;;;;;;12.18;92.92;102083.66;5052132;28;20029;-86
2023/08/10 04:51:36;;;;;;;1.40;1.30;;;;;;;12.19;92.98;102082.81;5053719;28;20029;-88
2023/08/10 04:54:01;;;;;;;1.97;1.77;;;;;;;12.22;93.03;102087.13;5053129;28;20027;-88
2023/08/10 04:56:31;;;;;;;1.70;1.60;;;;;;;12.23;93.07;102081.06;5052774;28;20124;-88
2023/08/10 04:58:56;;;;;;;1.60;1.50;;;;;;;12.22;93.21;102087.13;5053677;28;20029;-88
2023/08/10 05:01:21;;;;;;;1.70;1.60;;;;;;;12.26;93.15;102091.47;5053025;28;20374;-87
2023/08/10 05:03:47;;;;;;;1.70;1.60;;;;;;;12.24;93.46;102082.78;5051956;28;20489;-87
2023/08/10 05:06:15;;;;;;;1.40;1.30;;;;;;;12.29;93.53;102092.31;5053180;28;20021;-87
2023/08/10 05:08:40;;;;;;;1.08;0.98;;;;;;;12.30;93.65;102085.34;5053147;28;20021;-87
2023/08/10 05:11:06;;;;;;;1.30;1.20;;;;;;;12.30;93.62;102083.63;5051985;28;20431;-92
2023/08/10 05:13:32;;;;;;;1.93;1.27;;;;;;;12.37;93.74;102087.09;5054285;28;20021;-90
2023/08/10 05:15:58;;;;;;;;;;;;;;;12.41;94.06;102081.00;5054226;28;20040;-90
2023/08/10 05:18:23;;;;;;;1.33;1.23;;;;;;;12.43;94.08;102083.59;5053872;28;20368;-92
2023/08/10 05:20:51;;;;;;;1.57;1.47;;;;;;;12.48;94.35;102084.44;5053079;28;20025;-86
2023/08/10 05:23:17;;;;;;;1.25;1.25;;;;;;;12.51;93.97;102087.03;5052333;28;20154;-82
2023/08/10 05:25:42;;;;;;;1.37;1.27;;;;;;;12.44;94.29;102070.56;5051309;28;20123;-80
2023/08/10 05:28:07;;;;;;;1.50;1.40;;;;;;;12.54;94.47;102089.66;5051797;28;20021;-83
2023/08/10 05:30:33;;;;;;;1.37;1.27;;;;;;;12.57;94.42;102084.41;5052356;28;20124;-82
2023/08/10 05:32:59;;;;;;;1.53;1.43;;;;;;;12.61;94.34;102093.94;5051345;28;20091;-79
2023/08/10 05:35:24;;;;;;;1.67;1.50;;;;;;;12.67;94.16;102083.50;5052743;28;20281;-87
2023/08/10 05:37:49;;;;;;;2.13;1.33;;;;;;;12.72;94.27;102080.88;5051858;28;20036;-86
2023/08/10 05:40:15;;;;;;;1.37;1.27;;;;;;;12.83;94.39;102084.28;5052456;28;20035;-87
2023/08/10 05:42:41;;;;;;;1.57;1.30;;;;;;;12.94;94.47;102079.03;5052265;28;20049;-87
2023/08/10 05:45:08;;;;;;;1.60;1.50;;;;;;;13.02;94.39;102083.31;5051669;28;20024;-88
2023/08/10 05:47:35;;;;;;;2.45;1.38;;;;;;;13.11;95.03;102076.34;5052124;28;20033;-87
2023/08/10 05:50:00;;;;;;;1.42;1.33;;;;;;;13.19;94.80;102078.00;5051604;28;20104;-87
2023/08/10 05:52:26;;;;;;;1.80;1.47;;;;;;;13.25;94.84;102078.84;5051238;28;20501;-87
2023/08/10 05:54:51;;;;;;;1.47;1.37;;;;;;;13.31;94.73;102071.88;5052094;28;20378;-87
2023/08/10 05:57:18;;;;;;;1.03;1.03;;;;;;;13.38;95.30;102076.16;5051880;28;20048;-87
2023/08/10 05:59:44;;;;;;;1.00;1.00;;;;;;;13.49;95.65;102081.34;5051959;28;20021;-87
2023/08/10 06:02:09;;;;;;;0.90;0.90;;;;;;;13.53;97.00;102083.91;5051803;28;20040;-87
2023/08/10 06:04:34;;;;;;;1.10;1.00;;;;;;;13.58;96.75;102076.03;5052887;28;20025;-87
2023/08/10 06:07:02;;;;;;;1.10;1.00;;;;;;;13.68;97.30;102075.09;5051905;28;20462;-87
2023/08/10 06:09:28;;;;;;;1.17;1.13;;;;;;;13.76;98.19;102075.03;5052029;28;20033;-87
2023/08/10 06:11:54;;;;;;;1.30;1.20;;;;;;;13.84;97.10;102073.19;5052250;28;20040;-86
2023/08/10 06:14:20;;;;;;;1.37;1.03;;;;;;;13.96;97.64;102073.97;5051641;28;20025;-86
2023/08/10 06:16:45;;;;;;;0.90;0.90;;;;;;;14.11;96.40;102073.81;5051913;28;20025;-85
2023/08/10 06:19:10;;;;;;;2.00;1.73;;;;;;;14.25;98.67;102072.78;5051482;28;20025;-86
2023/08/10 06:21:36;;;;;;;2.10;1.90;;;;;;;14.41;98.09;102076.97;5051840;28;20025;-87
2023/08/10 06:24:01;;;;;;;4.37;2.97;;;;;;;14.53;96.76;102083.78;5052576;28;20021;-87
2023/08/10 06:26:26;;;;;;;5.93;3.20;;;;;;;14.68;97.73;102082.78;5051816;28;20052;-86
2023/08/10 06:28:52;;;;;;;3.40;2.90;;;;;;;14.76;95.84;102069.59;5051252;28;20033;-86
2023/08/10 06:31:17;;;;;;;2.30;2.10;;;;;;;14.93;95.61;102091.16;5051674;28;20049;-86
2023/08/10 06:33:42;;;;;;;1.90;1.73;;;;;;;15.05;95.36;102082.25;5052529;28;20029;-86
2023/08/10 06:36:10;;;;;;;1.87;1.70;;;;;;;15.16;95.66;102079.50;5051584;28;20508;-86
2023/08/10 06:38:36;;;;;;;2.00;1.70;;;;;;;15.25;95.05;102078.53;5054722;28;20104;-86
2023/08/10 06:41:07;;;;;;;1.70;1.60;;;;;;;15.24;95.89;102072.41;5056291;28;20025;-87
2023/08/10 06:43:32;;;;;;;2.97;2.08;;;;;;;15.24;96.28;102072.41;5055340;28;20055;-86
2023/08/10 06:45:58;;;;;;;2.20;1.90;;;;;;;15.20;95.59;102073.31;5054982;28;20057;-86
2023/08/10 06:48:23;;;;;;;1.73;1.63;;;;;;;15.22;95.76;102074.16;5054973;28;20462;-87
2023/08/10 06:50:49;;;;;;;1.97;1.80;;;;;;;15.57;97.33;102071.91;5055757;28;20032;-87
2023/08/10 06:53:14;;;;;;;1.67;1.57;;;;;;;16.89;96.77;102065.00;5054963;28;20385;-87
2023/08/10 06:55:42;;;;;;;1.20;1.20;;;;;;;19.41;94.98;102069.59;5054598;28;20129;-87
2023/08/10 06:58:08;;;;;;;0.90;0.90;;;;;;;22.01;88.96;102065.00;5054897;28;20480;-86
2023/08/10 07:00:34;;;;;;;0.70;0.70;;;;;;;24.15;83.48;102065.31;5055472;28;20060;-86
2023/08/10 07:02:59;;;;;;;0.93;0.93;;;;;;;25.87;76.69;102068.03;5054910;28;20021;-87
2023/08/10 07:05:28;;;;;;;0.80;0.80;;;;;;;27.15;72.94;102064.41;5055277;28;20107;-86
2023/08/10 07:07:55;;;;;;;0.70;0.70;;;;;;;28.11;64.73;102071.28;5055306;28;20029;-86
2023/08/10 07:10:20;;;;;;;0.90;0.90;;;;;;;28.72;54.49;102075.84;5054322;28;20143;-87
2023/08/10 07:12:48;;;;;;;1.30;1.20;;;;;;;28.84;53.47;102070.56;5055146;28;20021;-87
2023/08/10 07:15:13;;;;;;;1.50;1.40;;;;;;;28.30;48.24;102076.16;5054517;28;20397;-87
2023/08/10 07:17:38;;;;;;;1.67;1.50;;;;;;;27.38;51.06;102070.88;5053962;28;20023;-87
2023/08/10 07:20:05;;;;;;;1.67;1.57;;;;;;;26.37;56.12;102068.53;5054535;28;20033;-87
2023/08/10 07:22:31;;;;;;;1.98;1.77;;;;;;;25.42;59.24;102076.00;5054824;28;20013;-87
2023/08/10 07:25:00;;;;;;;1.90;1.70;;;;;;;24.52;62.06;102067.75;5054304;28;20032;-87
2023/08/10 07:27:26;;;;;;;1.60;1.50;;;;;;;23.80;64.77;102064.50;5053937;28;20025;-85
2023/08/10 07:29:51;;;;;;;1.88;1.77;;;;;;;23.22;66.21;102077.13;5054937;28;20151;-87
2023/08/10 07:32:20;;;;;;;1.80;1.60;;;;;;;22.70;68.80;102075.16;5053499;28;20501;-86
2023/08/10 07:34:45;;;;;;;2.22;1.50;;;;;;;22.26;66.42;102071.84;5054746;28;20062;-86
2023/08/10 07:37:10;;;;;;;1.67;1.57;;;;;;;21.89;68.84;102073.47;5054121;28;20025;-86
2023/08/10 07:39:36;;;;;;;1.57;1.43;;;;;;;21.56;67.83;102068.69;5053048;28;20108;-86
2023/08/10 07:42:01;;;;;;;1.20;1.10;;;;;;;21.26;69.44;102071.69;5053153;28;20071;-86
2023/08/10 07:44:27;;;;;;;1.23;1.13;;;;;;;20.97;67.56;102071.06;5052806;28;20099;-86
2023/08/10 07:46:52;;;;;;;1.23;1.13;;;;;;;20.73;65.25;102064.94;5053601;28;20272;-86
2023/08/10 07:49:20;;;;;;;2.47;1.07;;;;;;;20.52;67.31;102076.25;5052717;28;20037;-86
2023/08/10 07:51:47;;;;;;;1.13;1.02;;;;;;;20.40;66.34;102079.34;5053511;28;20029;-87
2023/08/10 07:54:13;;;;;;;;;;;;;;;20.26;69.61;102077.22;5054248;28;20056;-86
2023/08/10 07:56:38;;;;;;;1.98;1.00;;;;;;;20.17;69.75;102070.50;5054220;28;19975;-87
2023/08/10 07:59:03;;;;;;;1.63;1.30;;;;;;;20.20;64.25;102074.84;5052956;28;20075;-87
2023/08/10 08:01:29;;;;;;;1.10;1.00;;;;;;;20.23;70.22;102079.13;5054167;28;20409;-79
2023/08/10 08:03:54;;;;;;;1.30;1.20;;;;;;;20.17;62.31;102073.16;5054899;28;20059;-88
2023/08/10 08:06:19;;;;;;;0.97;0.97;;;;;;;20.16;68.20;102071.41;5053022;28;20112;-88
2023/08/10 08:08:45;;;;;;;1.00;0.90;;;;;;;20.23;66.67;102085.25;5054456;28;20029;-88
2023/08/10 08:11:10;;;;;;;0.83;0.83;;;;;;;20.26;63.46;102077.22;5065455;28;20041;-88
2023/08/10 08:13:36;;;;;;;1.45;1.30;;;;;;;20.31;65.56;102079.69;5054025;28;20023;-88
2023/08/10 08:16:01;;;;;;;0.70;0.70;;;;;;;20.32;66.96;102081.41;5054328;28;20028;-88
2023/08/10 08:18:47;;;;;;;0.77;0.77;;;;;;;20.39;68.53;102071.50;5054226;28;20025;-89
2023/08/10 08:21:14;;;;;;;0.75;0.75;;;;;;;20.51;67.48;102076.31;5053393;28;20053;-88
2023/08/10 08:23:40;;;;;;;1.00;1.00;;;;;;;20.62;68.66;102070.63;5053509;28;20021;-88
2023/08/10 08:26:06;;;;;;;0.97;0.97;;;;;;;20.63;61.81;102069.72;5053796;28;20032;-89
2023/08/10 08:28:31;;;;;;;0.60;0.60;;;;;;;20.65;63.72;102078.44;5054020;28;20035;-89
2023/08/10 08:30:56;;;;;;;0.63;0.63;;;;;;;20.71;66.45;102070.28;5054095;28;20045;-88
2023/08/10 08:33:22;;;;;;;0.50;0.50;;;;;;;20.83;67.39;102074.25;5045724;28;20402;-88
2023/08/10 08:35:50;;;;;;;1.20;1.00;;;;;;;20.91;58.43;102082.72;5053042;28;20025;-89
2023/08/10 08:38:20;;;;;;;1.30;1.00;;;;;;;20.91;61.41;102087.16;5053611;28;20104;-88
2023/08/10 08:40:48;;;;;;;1.17;0.90;;;;;;;20.94;60.13;102085.25;5053226;28;20032;-89
2023/08/10 08:43:14;;;;;;;0.93;0.93;;;;;;;20.98;62.40;102089.50;5053193;28;20032;-88
2023/08/10 08:45:40;;;;;;;0.50;0.50;;;;;;;21.10;62.24;102084.66;5054135;28;20031;-89
2023/08/10 08:48:07;;;;;;;0.60;0.60;;;;;;;21.24;62.56;102086.72;5052935;28;20025;-89
2023/08/10 08:50:34;;;;;;;0.50;0.50;;;;;;;21.42;62.22;102075.41;5053399;28;20037;-89
2023/08/10 08:53:00;;;;;;;1.08;1.02;;;;;;;21.66;58.66;102083.25;5053483;28;20021;-89
2023/08/10 08:55:26;;;;;;;2.47;1.15;;;;;;;21.82;55.20;102074.66;5053303;28;20025;-89
2023/08/10 08:57:51;;;;;;;2.33;1.40;;;;;;;21.80;56.82;102077.34;5053984;28;20033;-89
2023/08/10 09:00:17;;;;;;;1.23;1.00;;;;;;;21.78;59.50;102079.22;5053619;28;20052;-89
2023/08/10 09:02:43;;;;;;;1.10;1.00;;;;;;;21.78;58.45;102079.22;5053300;28;20024;-90
2023/08/10 09:05:08;;;;;;;1.27;1.17;;;;;;;21.74;60.94;102072.34;5052682;28;20278;-89
2023/08/10 09:07:33;;;;;;;1.10;1.00;;;;;;;21.73;61.09;102065.34;5053231;28;20401;-92
2023/08/10 09:09:59;;;;;;;0.90;0.90;;;;;;;21.77;58.57;102063.44;5056617;28;20059;-91
2023/08/10 09:12:37;;;;;;;0.90;0.90;;;;;;;21.73;59.68;102062.72;5053734;28;20469;-92
2023/08/10 09:15:06;;;;;;;0.73;0.73;;;;;;;21.70;61.10;102050.50;5053951;28;20087;-91
2023/08/10 09:17:33;;;;;;;0.73;0.70;;;;;;;21.75;61.63;102056.44;5054041;28;20036;-85
2023/08/10 09:19:58;;;;;;;0.55;0.52;;;;;;;21.80;61.97;102052.75;5053509;28;20179;-90
2023/08/10 09:22:34;;;;;;;0.82;0.80;;;;;;;21.89;63.05;102054.97;5053180;28;20110;-90
2023/08/10 09:25:01;;;;;;;0.50;0.50;;;;;;;21.96;63.34;102055.56;5053458;28;20469;-89
2023/08/10 09:27:27;;;;;;;0.73;0.60;;;;;;;21.98;60.02;102057.19;5053290;28;20021;-90
2023/08/10 09:29:57;;;;;;;0.75;0.75;;;;;;;22.00;61.73;102062.44;5053265;28;20477;-89
2023/08/10 09:32:23;;;;;;;0.50;0.50;;;;;;;21.96;62.27;102063.50;5052747;28;20057;-88
2023/08/10 09:34:48;;;;;;;0.77;0.77;;;;;;;21.93;61.64;102059.22;5053720;28;20103;-90
2023/08/10 09:37:14;;;;;;;0.80;0.80;;;;;;;21.98;61.98;102064.28;5052140;28;20139;-90
2023/08/10 09:39:39;;;;;;;1.27;0.80;;;;;;;22.00;60.78;102065.94;5053413;28;20029;-91
2023/08/10 09:42:05;;;;;;;1.00;0.83;;;;;;;22.00;56.67;102054.50;5052991;28;20025;-90
2023/08/10 09:44:45;;;;;;;0.90;0.90;;;;;;;22.04;61.60;102056.06;5053205;28;20047;-92
2023/08/10 09:47:11;;;;;;;1.38;0.98;;;;;;;22.06;61.40;102055.09;5052922;28;20025;-92
2023/08/10 09:49:38;;;;;;;0.80;0.80;;;;;;;22.03;62.31;102060.50;5053758;28;20037;-92
2023/08/10 09:52:04;;;;;;;0.60;0.60;;;;;;;22.10;63.31;102061.09;5052403;28;20040;-92
2023/08/10 09:54:30;;;;;;;0.90;0.90;;;;;;;22.08;61.70;102054.13;5053340;28;20025;-92
2023/08/10 09:56:57;;;;;;;1.13;1.13;;;;;;;22.06;58.81;102057.75;5053330;28;20021;-91
2023/08/10 09:59:22;;;;;;;0.80;0.80;;;;;;;22.08;58.12;102051.50;5052049;28;20829;-91
2023/08/10 10:01:48;;;;;;;0.97;0.90;;;;;;;22.05;59.89;102047.22;5052617;28;20044;-92
2023/08/10 10:04:13;;;;;;;0.60;0.50;;;;;;;22.06;61.74;102049.81;5052738;28;20029;-92
2023/08/10 10:06:40;;;;;;;0.80;0.80;;;;;;;22.08;57.84;102064.72;5052675;28;20021;-92
2023/08/10 10:09:05;;;;;;;0.70;0.70;;;;;;;22.13;62.40;102062.75;5052955;28;20029;-92
2023/08/10 10:11:32;;;;;;;0.60;0.60;;;;;;;22.22;63.18;102059.69;5052895;28;20074;-92
2023/08/10 10:13:58;;;;;;;0.63;0.63;;;;;;;22.27;59.12;102062.97;5055986;28;20096;-92
2023/08/10 10:16:24;;;;;;;0.63;0.60;;;;;;;22.27;62.40;102065.63;5056682;28;20532;-91
2023/08/10 10:18:50;;;;;;;0.80;0.80;;;;;;;22.33;63.12;102067.13;5057158;28;20481;-91
2023/08/10 10:21:16;;;;;;;0.60;0.60;;;;;;;22.38;63.00;102075.69;5055347;28;20029;-91
2023/08/10 10:23:42;;;;;;;0.80;0.80;;;;;;;22.41;63.31;102069.44;5056660;28;20021;-91
2023/08/10 10:26:07;;;;;;;0.70;0.70;;;;;;;22.46;63.53;102075.38;5056825;28;20032;-87
2023/08/10 10:28:33;;;;;;;0.43;0.43;;;;;;;22.48;63.75;102073.53;5055514;28;20478;-89
2023/08/10 10:31:04;;;;;;;0.73;0.73;;;;;;;22.51;63.76;102078.69;5055408;28;20052;-88
2023/08/10 10:33:30;;;;;;;0.90;0.80;;;;;;;;;;5055936;28;20095;-88
2023/08/10 10:36:12;;;;;;;0.60;0.60;;;;;;;22.49;63.11;102076.09;5056092;28;20021;-88
2023/08/10 10:38:46;;;;;;;0.70;0.70;;;;;;;22.50;63.20;102072.53;5056204;28;20533;-87
2023/08/10 10:41:15;;;;;;;0.57;0.57;;;;;;;22.57;62.57;102059.03;5054212;28;20021;-88
2023/08/10 10:43:44;;;;;;;0.68;0.68;;;;;;;22.56;61.61;102055.50;5055643;28;20021;-88
2023/08/10 10:46:36;;;;;;;1.00;1.00;;;;;;;22.57;57.74;102054.56;5056001;28;20075;-88
2023/08/10 10:49:05;;;;;;;0.82;0.82;;;;;;;22.58;62.14;102061.59;5055108;28;20025;-88
2023/08/10 10:51:31;;;;;;;0.70;0.70;;;;;;;22.71;62.84;102066.31;5056220;28;20039;-89
2023/08/10 10:53:57;;;;;;;0.77;0.77;;;;;;;22.81;63.34;102071.06;5056049;28;20146;-88
2023/08/10 10:56:25;;;;;;;0.90;0.90;;;;;;;22.91;62.98;102068.84;5055457;28;20040;-89
2023/08/10 10:58:50;;;;;;;0.60;0.60;;;;;;;22.98;58.87;102062.31;5055548;28;20393;-86
2023/08/10 11:01:20;;;;;;;1.53;0.90;;;;;;;23.06;58.55;102050.50;5054689;28;20025;-87
2023/08/10 11:03:56;;;;;;;1.50;1.40;;;;;;;22.99;52.51;102061.38;5055093;28;20279;-86
2023/08/10 11:06:23;;;;;;;2.22;1.35;;;;;;;22.96;55.62;102064.22;5055012;28;20044;-86
2023/08/10 11:08:54;;;;;;;2.58;2.10;;;;;;;22.79;48.41;102061.50;5053700;28;20510;-87
2023/08/10 11:11:21;;;;;;;4.03;1.70;;;;;;;22.67;55.59;102062.94;5054401;28;20024;-87
2023/08/10 11:13:47;;;;;;;2.22;1.70;;;;;;;22.76;55.30;102048.41;5055058;28;20461;-87
2023/08/10 11:16:13;;;;;;;1.40;1.30;;;;;;;22.99;58.38;102045.50;5054358;28;20025;-87
2023/08/10 11:18:38;;;;;;;1.20;1.20;;;;;;;23.23;58.11;102042.63;5054652;28;20040;-87
2023/08/10 11:21:06;;;;;;;1.70;1.30;;;;;;;23.46;56.99;102043.25;5054748;28;20373;-87
2023/08/10 11:23:31;;;;;;;3.85;1.90;;;;;;;23.45;55.25;102046.81;5053488;28;20077;-87